DRRNGGOV

Guest
Details From DRRN - DIORI HAMANI
To GGOV - BISSAU OSWALDO VIEIRA INTL
Flight Number -
Tags generated
Created
Modified
Stats Distance 1,099 nm / 2,036 km
Max Altitude 34,000 ft / 10,363 m
Waypoints 15
Social Downloads 0
Likes 0
Share VATSIM

Download

Looking for another format? Having issues loading an existing format? Contact us
Advertisement - Login to hide

Notes

Basic altitude profile: - Ascent Rate: 2500ft/min - Ascent Speed: 250kts - Cruise Altitude: 35000ft - Cruise Speed: 420kts - Descent Rate: 1500ft/min - Descent Speed: 250kts Options: - Use NATs: yes - Use PACOTS: yes - Use low airways: yes - Use high airways: yes

Route

DRRN EDKOX A600F ARBUT UA600F PITMA UA600 BKO UA612 KOLIP UR979 NASLO POGRA GGOV

ID Type Via Altitude Latitude Longitude Leg Dist Tot Dist Heading (true) Name
O DRRN APT - 0 ft / 0 m 13.48297˚ 2.18109˚ - 0 nm - DIORI HAMANI
EDKOX FIX - 28,000 ft / 8,534 m 13.38083˚ 0.84222˚ 78 nm 78 nm 266° / 265° -
FANDO FIX A600F (AWY-LO) 24,500 ft / 7,468 m 13.25444˚ -0.72111˚ 91 nm 170 nm 265° / 265° -
ARBUT FIX A600F (AWY-LO) 24,500 ft / 7,468 m 13.21472˚ -1.18583˚ 27 nm 197 nm 265° / 265° -
NUREX FIX UA600F (AWY-HI) 34,000 ft / 10,363 m 13.15417˚ -1.87972˚ 40 nm 238 nm 265° / 265° -
TAVOT FIX UA600F (AWY-HI) 34,000 ft / 10,363 m 13.08306˚ -2.66917˚ 46 nm 284 nm 265° / 265° -
ONUSI FIX UA600F (AWY-HI) 34,000 ft / 10,363 m 12.93056˚ -4.27500˚ 94 nm 378 nm 265° / 264° -
PITMA FIX UA600F (AWY-HI) 34,000 ft / 10,363 m 12.81889˚ -5.38806˚ 65 nm 444 nm 264° / 264° -
BKO VOR UA600 (AWY-HI) 34,000 ft / 10,363 m 12.54611˚ -7.93047˚ 149 nm 594 nm 264° / 263° BAMAKO/SENOU VOR-DME
NEGLO FIX UA612 (AWY-HI) 34,000 ft / 10,363 m 11.93333˚ -9.15000˚ 80 nm 674 nm 243° / 243° -
KOLIP FIX UA612 (AWY-HI) 34,000 ft / 10,363 m 10.66667˚ -11.55000˚ 160 nm 835 nm 242° / 241° -
LUGMI FIX UR979 (AWY-HI) 34,000 ft / 10,363 m 11.25000˚ -12.36667˚ 59 nm 894 nm 306° / 306° -
NASLO FIX UR979 (AWY-HI) 30,700 ft / 9,357 m 11.78333˚ -13.15000˚ 56 nm 950 nm 305° / 305° -
POGRA FIX - 18,700 ft / 5,700 m 11.66667˚ -14.17667˚ 60 nm 1011 nm 263° / 263° -
O GGOV APT - 0 ft / 0 m 11.89017˚ -15.64883˚ 87 nm 1099 nm 279° / 279° BISSAU OSWALDO VIEIRA INTL

Altitude Profile

Advertisement - Login to hide

Weather


0- 5 10 15 20 25 30 35+ Temperature / ° C

Clouds and Precipitation
Forecast for 2017-12-11 06:00 UTC. Updated an hour ago

Ground ~20,000 ft ~40,000 ft Winds

DRRN

Details ICAO DRRN (NIM)
Name DIORI HAMANI
Region Niger
Timezone Africa/Niamey (UTC+1.0)
Stats Elevation 732 ft / 223 m (AMSL)
Location 13.482967° 2.181087°
Runways 2
Magnetic Variation 1.204° W

METAR

DRRN 110600Z 01006KT 6000 NSC 16/M00 Q1014 TEMPO 4500 DU

Decode

TAF

TAF DRRN 110500Z 1106/1212 04006KT 8000 NSC TEMPO 1106/1112 08016KT 3500 BLDU TEMPO 1117/1120 4000 DU TEMPO 1206/1212 4000 DU

Decode

Departure Runways

ID Width Length Bearing (true) Bearing (mag) Surface Threshold Offset Overrun Length
09L 131 ft / 40 m 5,325 ft / 1,623 m 87.21° 88.41° Gravel 0 ft / 0 m 0 ft / 0 m
09R 148 ft / 45 m 9,854 ft / 3,004 m 87.26° 88.46° Asphalt 0 ft / 0 m 197 ft / 60 m
27L 148 ft / 45 m 9,854 ft / 3,004 m 267.27° 268.47° Asphalt 0 ft / 0 m 197 ft / 60 m
27R 131 ft / 40 m 5,325 ft / 1,623 m 267.21° 268.41° Gravel 0 ft / 0 m 0 ft / 0 m

GGOV

Details ICAO GGOV (OXB)
Name BISSAU OSWALDO VIEIRA INTL
Region Guinea Bissau
Timezone Africa/Bissau (UTC+0.0)
Stats Elevation 129 ft / 39 m (AMSL)
Location 11.890166° -15.648833°
Runways 1
Magnetic Variation 7.241° W

METAR

GGOV 110600Z 32003KT 6000 NSC 21/15 Q1011 NOSIG

Decode

TAF

TAF GGOV 102300Z 1100/1124 33002KT 7000 NSC= TAF GQPP 102300Z 1100/1124 36008KT 6000 NSC BECMG 1107/1110 06014KT BECMG 1115/1118 34015KT

Decode

Destination Runways

ID Width Length Bearing (true) Bearing (mag) Surface Threshold Offset Overrun Length
03 148 ft / 45 m 10,509 ft / 3,203 m 22.10° 29.34° Asphalt 0 ft / 0 m 1,312 ft / 400 m
21 148 ft / 45 m 10,509 ft / 3,203 m 202.10° 209.34° Asphalt 0 ft / 0 m 656 ft / 200 m

Popular Alternatives